TENO2: Tenkiller Lake

Data processed at Sun Aug 09 2020 23:31


All information presented herein is the property of the government of the United States of America and may be revised or deleted at any time without prior notice.
Dissemination of this information without the expressed written consent of the Public Affairs Office, Tulsa District U.S. Army Corps of Engineers is strictly prohibited.
These data are gathered electronically and, as presented, have not undergone any form of quality control. These data are not guaranteed to be valid or correct.
Go to home page.
Go to station list.
Go to home page.

Upstream stations:

Downstream station:
Previous Day
Next Day
Current Day
    
SHEF ID:       TENO2     Tenkiller Lake
STATION TYPE:  Reservoir
Flood Pool:  Bottom =   632.00, Top =   667.00

               PRECIP PRECIP(A) ELEVATION   STORAGE   TW-ELEV    INFLOW   RELEASE  AIR-TEMP  WIND-DIRWIND-SPEED REL-HUMID SOLAR-RAD   VOLTAGE  BAT-LOAD
                   in        in        ft     ac-ft        ft       cfs       cfs         F       deg       mph         %      W/m2      volt      volt
              Ccp-Rev   Ccp-Rev   Ccp-Rev   Ccp-Rev   Ccp-Rev  Rev-Regi  Rev-Regi   Ccp-Rev   Ccp-Rev   Ccp-Rev   Ccp-Rev   Ccp-Rev   Ccp-Rev   Ccp-Rev
(US/Central)
08/09 00:00      0.00      ----    633.76    691936    482.47       619        15     81.10    301.20      1.00     82.84      0.00     13.24     12.72
08/09 01:00      0.00      ----    633.77    692067    482.47       619        15     80.26    296.50      1.10     84.28      0.00     13.23     12.71
08/09 02:00      0.00      ----    633.77    692067    482.47       633        15     76.60    187.90      0.20     95.84      0.00     13.22     12.73
08/09 03:00      0.00      ----    633.77    692067    482.47       633        15     73.74    175.20      0.00    100.15      0.00     13.24     12.71
08/09 04:00      0.00      ----    633.78    692199    482.47       648        15     72.34    172.60      0.10    100.66      0.00     13.19     12.71
08/09 05:00      0.00      ----    633.78    692199    482.47       648        15     71.58    195.40      0.20    100.92      0.00     13.19     12.72
08/09 06:00      0.00      ----    633.79    692331    482.47       648        15     71.46    217.70      0.10    101.05      0.00     13.20     12.71
08/09 07:00      0.00      ----    633.79    692331    482.47       653        15     72.05    258.40      0.30    100.74      0.00     13.22     12.71
08/09 08:00      0.00      ----    633.79    692331    482.46       653        15     76.55    352.80      0.80     96.32     84.10     13.18     12.72
08/09 09:00      0.00      ----    633.80    692463    482.46       334        15     82.22     72.30      1.20     84.81    296.20     13.23     12.71
08/09 10:00      0.00      ----    633.80    692463    482.46       334        15     84.61    216.10      2.30     79.63    477.70     13.23     12.72
08/09 11:00      0.00      ----    633.80    692463    482.46       334        15     86.63    206.30      2.80     75.78    677.20     13.22     12.72
08/09 12:00      0.00      ----    633.80    692463    482.46        64        15     88.79    231.70      3.20     69.60    833.00     13.19     12.72
08/09 13:00      0.00      ----    633.80    692463    482.41       113      1760     90.82    220.20      3.70     62.82    912.90     13.19     12.72
08/09 14:00      0.00      ----    633.80    692463    485.40       820      3547     92.34    232.00      3.00     51.60    917.10     13.24     12.71
08/09 15:00      0.00      ----    633.77    692067    487.06       870      3547     93.65    235.10      2.80     45.29    916.70     13.19     12.71
08/09 16:00      0.00      ----    633.77    692067    487.06       921      3457     94.44    202.40      2.90     42.03    785.10     13.21     12.71
08/09 17:00      0.00      ----    633.75    691804    487.06      1259      3457     94.39    271.10      1.60     44.28    501.10     13.18     12.72
08/09 18:00      0.00      ----    633.73    691540    487.12      1210      3547     94.89    287.90      1.80     39.49    445.50     13.19     12.71
08/09 19:00      0.00      ----    633.72    691408    487.08       503        15     93.92    298.70      0.50     44.40    172.10     13.21     12.71
08/09 20:00      0.00      ----    633.72    691408    482.90       453        15     85.91    220.00      0.30     71.24      8.80     13.19     12.71
08/09 21:00      0.00      ----    633.72    691408    482.54       402        15     82.96    248.70      0.40     74.81      0.00     13.18     12.71
08/09 22:00      ----      ----      ----      ----      ----      ----      ----     84.18    285.50      0.90      ----      ----     13.24     12.71
08/09 23:00      ----      ----      ----      ----      ----      ----      ----      ----      ----      ----      ----      ----      ----      ----